createdAt,value
2022-12-18T00:00:34.196Z,-1.86
2022-12-18T00:03:57.592Z,-1.85
2022-12-18T00:07:00.770Z,-1.84
2022-12-18T00:10:04.907Z,-1.84
2022-12-18T00:13:10.085Z,-1.84
2022-12-18T00:16:19.499Z,-1.84
2022-12-18T00:19:22.588Z,-1.84
2022-12-18T00:22:25.656Z,-1.84
2022-12-18T00:25:28.701Z,-1.83
2022-12-18T00:28:32.028Z,-1.83
2022-12-18T00:31:35.629Z,-1.83
2022-12-18T00:34:38.830Z,-1.82
2022-12-18T00:37:41.826Z,-1.81
2022-12-18T00:40:46.849Z,-1.80
2022-12-18T00:43:49.866Z,-1.80
2022-12-18T00:46:52.941Z,-1.79
2022-12-18T00:49:56.056Z,-1.77
2022-12-18T00:52:59.095Z,-1.77
2022-12-18T00:56:02.133Z,-1.76
2022-12-18T00:59:05.810Z,-1.76
2022-12-18T01:02:08.885Z,-1.76
2022-12-18T01:05:14.137Z,-1.77
2022-12-18T01:08:17.209Z,-1.77
2022-12-18T01:11:21.659Z,-1.77
2022-12-18T01:14:24.859Z,-1.77
2022-12-18T01:17:29.703Z,-1.77
2022-12-18T01:20:33.191Z,-1.78
2022-12-18T01:23:36.709Z,-1.78
2022-12-18T01:26:39.949Z,-1.78
2022-12-18T01:29:43.533Z,-1.80
2022-12-18T01:32:46.559Z,-1.80
2022-12-18T01:35:49.594Z,-1.81
2022-12-18T01:38:53.462Z,-1.81
2022-12-18T01:42:05.524Z,-1.81
2022-12-18T01:45:14.732Z,-1.82
2022-12-18T01:48:19.498Z,-1.83
2022-12-18T01:51:22.814Z,-1.83
2022-12-18T01:54:28.612Z,-1.85
2022-12-18T01:59:19.998Z,-1.86
2022-12-18T02:02:23.416Z,-1.86
2022-12-18T02:05:36.202Z,-1.87
2022-12-18T02:08:48.563Z,-1.87
2022-12-18T02:12:19.266Z,-1.88
2022-12-18T02:15:37.147Z,-1.89
2022-12-18T02:18:46.311Z,-1.89
2022-12-18T02:22:07.933Z,-1.90
2022-12-18T02:25:14.102Z,-1.90
2022-12-18T02:28:19.641Z,-1.92
2022-12-18T02:31:28.805Z,-1.92
2022-12-18T02:34:37.062Z,-1.93
2022-12-18T02:37:43.016Z,-1.93
2022-12-18T02:40:47.351Z,-1.93
2022-12-18T02:43:59.927Z,-1.94
2022-12-18T02:47:04.350Z,-1.94
2022-12-18T02:50:23.653Z,-1.94
2022-12-18T02:53:52.514Z,-1.95
2022-12-18T02:56:59.220Z,-1.95
2022-12-18T03:00:07.396Z,-1.96
2022-12-18T03:03:22.634Z,-1.96
2022-12-18T03:06:40.752Z,-1.98
2022-12-18T03:09:48.789Z,-1.98
2022-12-18T03:13:09.079Z,-1.98
2022-12-18T03:16:20.302Z,-1.98
2022-12-18T03:19:27.799Z,-1.98
2022-12-18T03:22:35.494Z,-1.99
2022-12-18T03:25:45.159Z,-1.99
2022-12-18T03:28:55.396Z,-1.99
2022-12-18T03:32:09.548Z,-2.00
2022-12-18T03:35:22.376Z,-2.00
2022-12-18T03:38:25.896Z,-2.00
2022-12-18T03:41:46.005Z,-2.00
2022-12-18T03:45:19.827Z,-1.99
2022-12-18T03:48:40.252Z,-1.99
2022-12-18T03:51:51.346Z,-1.99
2022-12-18T03:54:57.703Z,-1.99
2022-12-18T03:58:04.583Z,-2.01
2022-12-18T04:01:17.933Z,-2.02
2022-12-18T04:04:22.662Z,-2.03
2022-12-18T04:07:26.333Z,-2.04
2022-12-18T04:10:30.150Z,-2.04
2022-12-18T04:13:37.561Z,-2.05
2022-12-18T04:16:43.868Z,-2.05
2022-12-18T04:19:48.881Z,-2.06
2022-12-18T04:22:52.580Z,-2.07
2022-12-18T04:25:56.224Z,-2.07
2022-12-18T04:29:12.729Z,-2.07
2022-12-18T04:32:16.031Z,-2.07
2022-12-18T04:35:19.739Z,-2.07
2022-12-18T04:38:23.645Z,-2.07
2022-12-18T04:41:30.691Z,-2.08
2022-12-18T04:44:34.485Z,-2.08
2022-12-18T04:47:37.604Z,-2.08
2022-12-18T04:50:40.616Z,-2.07
2022-12-18T04:53:44.177Z,-2.08
2022-12-18T04:56:47.257Z,-2.08
2022-12-18T04:59:50.530Z,-2.09
2022-12-18T05:02:53.616Z,-2.10
2022-12-18T05:05:56.792Z,-2.11
2022-12-18T05:08:59.863Z,-2.12
2022-12-18T05:12:02.876Z,-2.12
2022-12-18T05:15:06.556Z,-2.13
2022-12-18T05:18:09.800Z,-2.13
2022-12-18T05:21:12.862Z,-2.13
2022-12-18T05:24:15.973Z,-2.12
2022-12-18T05:27:21.614Z,-2.12
2022-12-18T05:30:24.719Z,-2.12
2022-12-18T05:33:30.867Z,-2.11
2022-12-18T05:36:33.912Z,-2.11
2022-12-18T05:39:36.967Z,-2.11
2022-12-18T05:42:39.987Z,-2.12
2022-12-18T05:45:43.353Z,-2.11
2022-12-18T05:48:46.540Z,-2.11
2022-12-18T05:51:49.571Z,-2.12
2022-12-18T05:54:52.620Z,-2.12
2022-12-18T05:57:55.711Z,-2.12
2022-12-18T06:01:06.579Z,-2.12
2022-12-18T06:04:09.663Z,-2.13
2022-12-18T06:07:12.833Z,-2.13
2022-12-18T06:10:18.508Z,-2.14
2022-12-18T06:13:22.075Z,-2.14
2022-12-18T06:16:25.344Z,-2.13
2022-12-18T06:19:28.548Z,-2.13
2022-12-18T06:22:33.197Z,-2.13
2022-12-18T06:25:39.713Z,-2.14
2022-12-18T06:28:43.090Z,-2.15
2022-12-18T06:31:46.694Z,-2.15
2022-12-18T06:34:49.882Z,-2.15
2022-12-18T06:37:52.999Z,-2.14
2022-12-18T06:40:56.076Z,-2.14
2022-12-18T06:44:00.083Z,-2.15
2022-12-18T06:47:03.878Z,-2.14
2022-12-18T06:50:12.617Z,-2.14
2022-12-18T06:53:18.832Z,-2.15
2022-12-18T06:56:22.157Z,-2.15
2022-12-18T06:59:25.441Z,-2.16
2022-12-18T07:02:29.543Z,-2.16
2022-12-18T07:05:32.737Z,-2.15
2022-12-18T07:08:35.868Z,-2.16
2022-12-18T07:11:39.163Z,-2.15
2022-12-18T07:14:42.332Z,-2.15
2022-12-18T07:17:45.397Z,-2.15
2022-12-18T07:20:48.461Z,-2.15
2022-12-18T07:23:52.179Z,-2.15
2022-12-18T07:26:55.519Z,-2.14
2022-12-18T07:29:58.563Z,-2.13
2022-12-18T07:33:01.690Z,-2.14
2022-12-18T07:36:06.978Z,-2.13
2022-12-18T07:39:12.524Z,-2.12
2022-12-18T07:42:33.917Z,-2.10
2022-12-18T07:45:37.358Z,-2.08
2022-12-18T07:48:49.307Z,-2.07
2022-12-18T07:51:58.527Z,-2.05
2022-12-18T07:55:01.542Z,-2.03
2022-12-18T07:58:05.378Z,-2.02
2022-12-18T08:01:10.968Z,-2.00
2022-12-18T08:04:14.673Z,-1.99
2022-12-18T08:07:17.921Z,-1.98
2022-12-18T08:10:21.845Z,-1.96
2022-12-18T08:13:26.055Z,-1.95
2022-12-18T08:16:29.540Z,-1.95
2022-12-18T08:19:32.622Z,-1.93
2022-12-18T08:22:38.951Z,-1.92
2022-12-18T08:25:41.978Z,-1.93
2022-12-18T08:28:45.547Z,-1.94
2022-12-18T08:31:48.781Z,-1.94
2022-12-18T08:34:51.939Z,-1.93
2022-12-18T08:37:55.195Z,-1.91
2022-12-18T08:41:07.069Z,-1.92
2022-12-18T08:44:28.767Z,-1.94
2022-12-18T08:47:32.181Z,-1.94
2022-12-18T08:50:35.313Z,-1.93
2022-12-18T08:53:39.075Z,-1.92
2022-12-18T08:56:42.365Z,-1.90
2022-12-18T08:59:45.517Z,-1.84
2022-12-18T09:02:51.532Z,-1.76
2022-12-18T09:05:54.816Z,-1.68
2022-12-18T09:08:58.594Z,-1.60
2022-12-18T09:12:04.757Z,-1.51
2022-12-18T09:15:08.087Z,-1.43
2022-12-18T09:18:11.178Z,-1.35
2022-12-18T09:21:21.772Z,-1.28
2022-12-18T09:24:24.881Z,-1.21
2022-12-18T09:27:28.279Z,-1.13
2022-12-18T09:30:31.835Z,-1.06
2022-12-18T09:33:37.189Z,-0.98
2022-12-18T09:36:40.730Z,-0.91
2022-12-18T09:39:43.816Z,-0.85
2022-12-18T09:42:52.533Z,-0.78
2022-12-18T09:46:12.623Z,-0.72
2022-12-18T09:49:19.849Z,-0.67
2022-12-18T09:52:26.889Z,-0.66
2022-12-18T09:55:37.525Z,-0.65
2022-12-18T09:58:51.193Z,-0.61
2022-12-18T10:01:54.431Z,-0.52
2022-12-18T10:05:04.053Z,-0.46
2022-12-18T10:08:17.449Z,-0.42
2022-12-18T10:11:49.053Z,-0.44
2022-12-18T10:15:08.004Z,-0.46
2022-12-18T10:18:25.503Z,-0.48
2022-12-18T10:21:38.689Z,-0.49
2022-12-18T10:24:54.247Z,-0.49
2022-12-18T10:28:01.534Z,-0.50
2022-12-18T10:31:15.507Z,-0.49
2022-12-18T10:34:18.956Z,-0.46
2022-12-18T10:37:25.190Z,-0.43
2022-12-18T10:40:28.307Z,-0.42
2022-12-18T10:43:32.387Z,-0.40
2022-12-18T10:46:35.788Z,-0.39
2022-12-18T10:49:49.483Z,-0.36
2022-12-18T10:52:59.214Z,-0.34
2022-12-18T10:56:05.144Z,-0.25
2022-12-18T10:59:11.710Z,-0.13
2022-12-18T11:02:38.501Z,-0.07
2022-12-18T11:05:41.794Z,-0.06
2022-12-18T11:08:58.484Z,-0.09
2022-12-18T11:12:04.905Z,-0.13
2022-12-18T11:15:28.987Z,-0.16
2022-12-18T11:18:36.991Z,-0.18
2022-12-18T11:21:42.593Z,-0.18
2022-12-18T11:25:29.645Z,-0.18
2022-12-18T11:28:42.624Z,-0.19
2022-12-18T11:31:46.162Z,-0.19
2022-12-18T11:34:59.153Z,-0.18
2022-12-18T11:38:08.344Z,-0.15
2022-12-18T11:41:45.591Z,-0.14
2022-12-18T11:44:55.665Z,-0.13
2022-12-18T11:48:07.858Z,-0.12
2022-12-18T11:51:19.843Z,-0.08
2022-12-18T11:54:22.955Z,-0.03
2022-12-18T11:57:50.001Z,-0.02
2022-12-18T12:01:04.582Z,-0.06
2022-12-18T12:04:32.192Z,-0.14
2022-12-18T12:08:10.768Z,-0.26
2022-12-18T12:11:13.716Z,-0.37
2022-12-18T12:14:44.085Z,-0.45
2022-12-18T12:18:22.382Z,-0.52
2022-12-18T12:21:25.360Z,-0.55
2022-12-18T12:24:39.334Z,-0.57
2022-12-18T12:28:11.790Z,-0.58
2022-12-18T12:31:43.183Z,-0.58
2022-12-18T12:35:09.872Z,-0.57
2022-12-18T12:38:26.379Z,-0.54
2022-12-18T12:41:52.888Z,-0.54
2022-12-18T12:44:59.595Z,-0.55
2022-12-18T12:48:05.211Z,-0.56
2022-12-18T12:51:15.011Z,-0.58
2022-12-18T12:54:25.823Z,-0.60
2022-12-18T12:57:38.016Z,-0.63
2022-12-18T13:00:52.747Z,-0.68
2022-12-18T13:04:12.875Z,-0.70
2022-12-18T13:07:33.542Z,-0.73
2022-12-18T13:10:42.086Z,-0.76
2022-12-18T13:13:56.784Z,-0.80
2022-12-18T13:17:16.413Z,-0.83
2022-12-18T13:20:19.570Z,-0.88
2022-12-18T13:23:34.201Z,-0.94
2022-12-18T13:26:37.323Z,-1.01
2022-12-18T13:29:45.875Z,-1.08
2022-12-18T13:32:48.986Z,-1.15
2022-12-18T13:35:53.870Z,-1.20
2022-12-18T13:39:18.527Z,-1.28
2022-12-18T13:42:58.897Z,-1.37
2022-12-18T13:46:21.502Z,-1.46
2022-12-18T13:49:24.587Z,-1.56
2022-12-18T13:52:37.460Z,-1.64
2022-12-18T13:55:53.677Z,-1.70
2022-12-18T13:59:34.213Z,-1.76
2022-12-18T14:02:37.501Z,-1.83
2022-12-18T14:05:42.899Z,-1.89
2022-12-18T14:08:48.140Z,-1.96
2022-12-18T14:11:52.948Z,-2.02
2022-12-18T14:14:56.884Z,-2.08
2022-12-18T14:18:20.035Z,-2.13
2022-12-18T14:21:27.264Z,-2.19
2022-12-18T14:24:31.407Z,-2.25
2022-12-18T14:27:39.128Z,-2.32
2022-12-18T14:30:45.164Z,-2.38
2022-12-18T14:33:48.546Z,-2.45
2022-12-18T14:36:56.329Z,-2.49
2022-12-18T14:40:13.993Z,-2.55
2022-12-18T14:43:22.189Z,-2.64
2022-12-18T14:46:34.320Z,-2.73
2022-12-18T14:49:38.242Z,-2.81
2022-12-18T14:52:42.040Z,-2.88
2022-12-18T14:55:48.714Z,-2.96
2022-12-18T14:58:54.415Z,-3.04
2022-12-18T15:02:09.677Z,-3.12
2022-12-18T15:05:14.590Z,-3.22
2022-12-18T15:08:35.743Z,-3.28
2022-12-18T15:11:41.858Z,-3.37
2022-12-18T15:14:45.007Z,-3.48
2022-12-18T15:17:48.197Z,-3.58
2022-12-18T15:20:56.278Z,-3.68
2022-12-18T15:23:59.631Z,-3.78
2022-12-18T15:27:02.821Z,-3.87
2022-12-18T15:30:09.009Z,-3.95
2022-12-18T15:33:43.422Z,-4.06
2022-12-18T15:36:47.045Z,-4.16
2022-12-18T15:39:50.155Z,-4.24
2022-12-18T15:43:17.249Z,-4.30
2022-12-18T15:46:23.738Z,-4.38
2022-12-18T15:49:27.064Z,-4.45
2022-12-18T15:52:30.241Z,-4.52
2022-12-18T15:55:54.232Z,-4.59
2022-12-18T15:59:00.261Z,-4.66
2022-12-18T16:02:05.777Z,-4.69
2022-12-18T16:05:16.282Z,-4.73
2022-12-18T16:08:27.779Z,-4.79
2022-12-18T16:11:39.569Z,-4.85
2022-12-18T16:14:43.823Z,-4.92
2022-12-18T16:17:48.128Z,-4.98
2022-12-18T16:20:51.968Z,-5.03
2022-12-18T16:23:55.161Z,-5.08
2022-12-18T16:27:00.432Z,-5.07
2022-12-18T16:30:04.504Z,-4.94
2022-12-18T16:33:08.666Z,-4.86
2022-12-18T16:36:11.860Z,-4.82
2022-12-18T16:39:15.070Z,-4.78
2022-12-18T16:42:20.800Z,-4.75
2022-12-18T16:45:24.084Z,-4.70
2022-12-18T16:48:30.123Z,-4.67
2022-12-18T16:51:33.395Z,-4.65
2022-12-18T16:54:36.938Z,-4.65
2022-12-18T16:57:40.114Z,-4.65
2022-12-18T17:00:43.195Z,-4.66
2022-12-18T17:03:53.109Z,-4.68
2022-12-18T17:06:56.198Z,-4.69
2022-12-18T17:09:59.285Z,-4.69
2022-12-18T17:13:02.464Z,-4.69
2022-12-18T17:16:07.326Z,-4.70
2022-12-18T17:19:16.795Z,-4.71
2022-12-18T17:22:23.420Z,-4.70
2022-12-18T17:25:26.757Z,-4.68
2022-12-18T17:28:30.828Z,-4.68
2022-12-18T17:31:34.841Z,-4.67
2022-12-18T17:34:38.927Z,-4.67
2022-12-18T17:37:43.484Z,-4.67
2022-12-18T17:40:46.817Z,-4.69
2022-12-18T17:43:55.396Z,-4.65
2022-12-18T17:46:58.764Z,-4.56
2022-12-18T17:50:01.941Z,-4.55
2022-12-18T17:53:05.086Z,-4.57
2022-12-18T17:56:13.824Z,-4.58
2022-12-18T17:59:16.880Z,-4.60
2022-12-18T18:02:20.256Z,-4.62
2022-12-18T18:05:31.092Z,-4.63
2022-12-18T18:08:36.081Z,-4.65
2022-12-18T18:11:57.498Z,-4.67
2022-12-18T18:15:06.179Z,-4.70
2022-12-18T18:18:09.918Z,-4.72
2022-12-18T18:21:50.354Z,-4.73
2022-12-18T18:25:15.136Z,-4.74
2022-12-18T18:28:18.527Z,-4.74
2022-12-18T18:31:41.748Z,-4.74
2022-12-18T18:34:45.138Z,-4.76
2022-12-18T18:37:49.094Z,-4.79
2022-12-18T18:41:02.870Z,-4.81
2022-12-18T18:44:09.923Z,-4.81
2022-12-18T18:47:14.234Z,-4.81
2022-12-18T18:50:17.460Z,-4.81
2022-12-18T18:53:20.553Z,-4.81
2022-12-18T18:56:56.132Z,-4.81
2022-12-18T18:59:58.362Z,-4.82
2022-12-18T19:03:14.198Z,-4.83
2022-12-18T19:06:27.943Z,-4.85
2022-12-18T19:09:55.543Z,-4.87
2022-12-18T19:13:23.236Z,-4.88
2022-12-18T19:16:29.655Z,-4.89
2022-12-18T19:19:33.073Z,-4.89
2022-12-18T19:22:36.343Z,-4.86
2022-12-18T19:30:17.057Z,-4.79
2022-12-18T19:37:08.076Z,-4.81
2022-12-18T19:40:19.371Z,-4.82
2022-12-18T19:43:38.588Z,-4.85
2022-12-18T19:53:19.741Z,-4.89
2022-12-18T19:56:31.275Z,-4.88
2022-12-18T19:59:42.982Z,-4.85
2022-12-18T20:02:46.469Z,-4.82
2022-12-18T20:05:50.522Z,-4.79
2022-12-18T20:09:01.355Z,-4.78
2022-12-18T20:12:08.892Z,-4.76
2022-12-18T20:15:11.262Z,-4.77
2022-12-18T20:18:13.174Z,-4.77
2022-12-18T20:21:15.740Z,-4.76
2022-12-18T20:24:28.424Z,-4.76
2022-12-18T20:27:30.587Z,-4.77
2022-12-18T20:30:33.552Z,-4.78
2022-12-18T20:33:40.133Z,-4.80
2022-12-18T20:36:45.919Z,-4.81
2022-12-18T20:40:15.514Z,-4.83
2022-12-18T20:47:40.172Z,-4.86
2022-12-18T20:57:02.847Z,-4.88
2022-12-18T21:00:07.509Z,-4.92
2022-12-18T21:08:15.504Z,-4.99
2022-12-18T21:26:22.936Z,-5.19
2022-12-18T21:29:26.276Z,-5.23
2022-12-18T21:32:29.389Z,-5.28
2022-12-18T21:35:37.271Z,-5.33
2022-12-18T21:38:39.022Z,-5.38
2022-12-18T21:41:59.432Z,-5.46
2022-12-18T21:45:01.575Z,-5.51
2022-12-18T21:48:03.926Z,-5.56
2022-12-18T21:51:05.774Z,-5.59
2022-12-18T21:54:08.537Z,-5.62
2022-12-18T21:57:12.727Z,-5.64
2022-12-18T22:00:18.438Z,-5.66
2022-12-18T22:03:21.824Z,-5.68
2022-12-18T22:06:23.648Z,-5.69
2022-12-18T22:09:25.452Z,-5.69
2022-12-18T22:12:42.886Z,-5.70
2022-12-18T22:15:46.363Z,-5.70
2022-12-18T22:18:48.115Z,-5.72
2022-12-18T22:21:50.353Z,-5.73
2022-12-18T22:24:52.061Z,-5.73
2022-12-18T22:28:12.367Z,-5.74
2022-12-18T22:31:14.278Z,-5.73
2022-12-18T22:34:19.370Z,-5.73
2022-12-18T22:37:23.637Z,-5.72
2022-12-18T22:40:26.511Z,-5.71
2022-12-18T22:43:28.412Z,-5.71
2022-12-18T22:46:32.590Z,-5.71
2022-12-18T22:49:35.381Z,-5.70
2022-12-18T22:52:37.773Z,-5.67
2022-12-18T22:55:39.471Z,-5.65
2022-12-18T22:58:41.187Z,-5.63
2022-12-18T23:01:43.426Z,-5.59
2022-12-18T23:04:48.224Z,-5.56
2022-12-18T23:07:49.858Z,-5.51
2022-12-18T23:10:52.753Z,-5.46
2022-12-18T23:13:55.167Z,-5.41
2022-12-18T23:16:59.281Z,-5.37
2022-12-18T23:20:01.164Z,-5.33
2022-12-18T23:23:02.812Z,-5.30
2022-12-18T23:26:13.475Z,-5.26
2022-12-18T23:29:15.195Z,-5.22
2022-12-18T23:32:16.934Z,-5.18
2022-12-18T23:35:18.749Z,-5.14
2022-12-18T23:38:20.433Z,-5.12
2022-12-18T23:41:24.913Z,-5.09
2022-12-18T23:44:27.092Z,-5.06
2022-12-18T23:47:29.670Z,-5.05
2022-12-18T23:50:34.674Z,-5.05
2022-12-18T23:53:36.756Z,-5.06
2022-12-18T23:56:38.459Z,-5.05
2022-12-18T23:59:40.196Z,-5.04
